createdAt,value
2023-02-17T00:01:32.383Z,100675.28
2023-02-17T00:04:00.368Z,100671.56
2023-02-17T00:06:30.729Z,100679.34
2023-02-17T00:08:59.634Z,100683.25
2023-02-17T00:11:28.592Z,100682.88
2023-02-17T00:13:56.564Z,100686.28
2023-02-17T00:16:26.635Z,100683.75
2023-02-17T00:19:02.094Z,100686.63
2023-02-17T00:21:31.786Z,100681.94
2023-02-17T00:23:59.550Z,100676.63
2023-02-17T00:26:26.780Z,100664.25
2023-02-17T00:28:53.656Z,100671.56
2023-02-17T00:31:22.874Z,100670.09
2023-02-17T00:33:50.257Z,100656.84
2023-02-17T00:36:20.077Z,100653.63
2023-02-17T00:38:48.778Z,100668.56
2023-02-17T00:41:17.546Z,100658.38
2023-02-17T00:43:45.405Z,100663.50
2023-02-17T00:46:12.427Z,100649.38
2023-02-17T00:48:39.515Z,100645.66
2023-02-17T00:51:07.134Z,100655.69
2023-02-17T00:53:34.016Z,100655.47
2023-02-17T00:56:01.004Z,100657.91
2023-02-17T00:58:28.223Z,100646.38
2023-02-17T01:00:58.754Z,100653.81
2023-02-17T01:03:27.008Z,100657.72
2023-02-17T01:05:55.442Z,100647.88
2023-02-17T01:08:24.432Z,100649.94
2023-02-17T01:10:52.800Z,100648.22
2023-02-17T01:13:20.222Z,100646.00
2023-02-17T01:15:52.547Z,100651.25
2023-02-17T01:18:23.168Z,100644.19
2023-02-17T01:20:50.173Z,100641.47
2023-02-17T01:23:17.663Z,100658.22
2023-02-17T01:25:47.082Z,100656.91
2023-02-17T01:28:21.360Z,100667.03
2023-02-17T01:30:49.843Z,100670.97
2023-02-17T01:33:16.801Z,100668.75
2023-02-17T01:35:43.774Z,100663.53
2023-02-17T01:38:10.980Z,100670.63
2023-02-17T01:40:37.863Z,100678.94
2023-02-17T01:43:06.507Z,100694.41
2023-02-17T01:45:47.226Z,100701.34
2023-02-17T01:48:22.177Z,100709.34
2023-02-17T01:50:54.853Z,100713.41
2023-02-17T01:53:32.428Z,100707.09
2023-02-17T01:55:59.467Z,100711.34
2023-02-17T01:58:28.442Z,100711.84
2023-02-17T02:00:58.468Z,100722.56
2023-02-17T02:03:26.855Z,100693.91
2023-02-17T02:05:53.654Z,100692.19
2023-02-17T02:08:20.505Z,100698.66
2023-02-17T02:10:47.379Z,100689.84
2023-02-17T02:13:14.553Z,100691.03
2023-02-17T02:16:02.506Z,100684.44
2023-02-17T02:19:29.425Z,100675.63
2023-02-17T02:22:26.770Z,100669.72
2023-02-17T02:25:30.878Z,100664.44
2023-02-17T02:28:27.111Z,100656.81
2023-02-17T02:31:11.486Z,100647.72
2023-02-17T02:33:48.221Z,100631.13
2023-02-17T02:36:52.372Z,100631.97
2023-02-17T02:39:29.361Z,100651.66
2023-02-17T02:42:03.548Z,100658.41
2023-02-17T02:44:30.929Z,100655.91
2023-02-17T02:47:07.899Z,100661.66
2023-02-17T02:49:36.912Z,100651.50
2023-02-17T02:52:33.777Z,100654.22
2023-02-17T02:55:20.903Z,100660.75
2023-02-17T02:58:22.795Z,100662.97
2023-02-17T03:00:58.233Z,100656.88
2023-02-17T03:03:37.748Z,100649.09
2023-02-17T03:06:16.021Z,100640.97
2023-02-17T03:09:17.605Z,100635.72
2023-02-17T03:11:45.750Z,100635.56
2023-02-17T03:14:17.598Z,100624.72
2023-02-17T03:16:46.914Z,100621.81
2023-02-17T03:19:15.585Z,100613.69
2023-02-17T03:21:52.489Z,100613.03
2023-02-17T03:24:19.782Z,100615.91
2023-02-17T03:26:46.674Z,100607.13
2023-02-17T03:29:13.601Z,100612.38
2023-02-17T03:31:40.868Z,100603.72
2023-02-17T03:34:08.616Z,100598.28
2023-02-17T03:36:35.462Z,100592.53
2023-02-17T03:39:02.373Z,100599.66
2023-02-17T03:41:29.418Z,100595.91
2023-02-17T03:43:56.239Z,100590.34
2023-02-17T03:46:23.004Z,100588.16
2023-02-17T03:48:50.153Z,100596.28
2023-02-17T03:51:23.736Z,100605.75
2023-02-17T03:53:51.520Z,100592.72
2023-02-17T03:56:19.459Z,100590.84
2023-02-17T03:58:46.319Z,100582.88
2023-02-17T04:01:14.699Z,100589.50
2023-02-17T04:03:42.676Z,100580.34
2023-02-17T04:06:10.752Z,100578.00
2023-02-17T04:08:39.023Z,100572.56
2023-02-17T04:11:08.554Z,100587.81
2023-02-17T04:13:35.996Z,100582.06
2023-02-17T04:16:04.847Z,100576.81
2023-02-17T04:18:32.554Z,100581.03
2023-02-17T04:20:59.513Z,100575.63
2023-02-17T04:23:26.377Z,100576.28
2023-02-17T04:25:53.411Z,100578.00
2023-02-17T04:28:21.591Z,100569.00
2023-02-17T04:30:50.783Z,100558.00
2023-02-17T04:33:18.317Z,100569.50
2023-02-17T04:35:45.505Z,100565.28
2023-02-17T04:38:12.322Z,100568.84
2023-02-17T04:40:40.372Z,100557.31
2023-02-17T04:43:08.642Z,100562.41
2023-02-17T04:45:37.228Z,100560.00
2023-02-17T04:48:04.676Z,100559.69
2023-02-17T04:50:31.659Z,100580.34
2023-02-17T04:52:58.823Z,100566.31
2023-02-17T04:55:25.725Z,100550.56
2023-02-17T04:57:52.622Z,100555.09
2023-02-17T05:00:20.015Z,100558.84
2023-02-17T05:02:46.855Z,100564.25
2023-02-17T05:05:16.569Z,100555.97
2023-02-17T05:07:43.376Z,100567.13
2023-02-17T05:10:10.834Z,100567.97
2023-02-17T05:12:37.976Z,100547.50
2023-02-17T05:15:05.752Z,100531.09
2023-02-17T05:17:33.312Z,100552.22
2023-02-17T05:20:00.682Z,100545.31
2023-02-17T05:22:28.220Z,100546.66
2023-02-17T05:24:55.098Z,100566.13
2023-02-17T05:27:22.117Z,100572.91
2023-02-17T05:29:49.097Z,100581.34
2023-02-17T05:32:15.938Z,100582.69
2023-02-17T05:34:43.167Z,100595.88
2023-02-17T05:37:10.353Z,100602.13
2023-02-17T05:39:37.317Z,100617.19
2023-02-17T05:42:04.500Z,100600.25
2023-02-17T05:44:31.384Z,100601.44
2023-02-17T05:46:58.463Z,100606.69
2023-02-17T05:49:25.265Z,100599.59
2023-02-17T05:51:52.028Z,100605.69
2023-02-17T05:54:19.280Z,100592.78
2023-02-17T05:56:46.140Z,100604.31
2023-02-17T05:59:12.960Z,100586.16
2023-02-17T06:01:39.719Z,100597.38
2023-02-17T06:04:06.488Z,100590.91
2023-02-17T06:06:33.318Z,100578.56
2023-02-17T06:09:00.517Z,100586.16
2023-02-17T06:11:27.324Z,100591.09
2023-02-17T06:13:54.112Z,100587.38
2023-02-17T06:16:21.055Z,100608.88
2023-02-17T06:18:47.889Z,100627.66
2023-02-17T06:21:15.110Z,100626.81
2023-02-17T06:23:41.924Z,100637.50
2023-02-17T06:26:08.875Z,100641.59
2023-02-17T06:28:38.780Z,100651.72
2023-02-17T06:31:05.822Z,100645.97
2023-02-17T06:33:32.854Z,100643.59
2023-02-17T06:36:00.030Z,100646.13
2023-02-17T06:38:27.157Z,100669.00
2023-02-17T06:40:54.641Z,100674.75
2023-02-17T06:43:21.625Z,100667.47
2023-02-17T06:45:48.741Z,100672.22
2023-02-17T06:48:15.626Z,100668.66
2023-02-17T06:50:42.469Z,100670.34
2023-02-17T06:53:09.279Z,100663.53
2023-02-17T06:55:37.395Z,100664.88
2023-02-17T06:58:04.597Z,100663.19
2023-02-17T07:00:31.703Z,100654.69
2023-02-17T07:02:59.220Z,100638.09
2023-02-17T07:05:26.116Z,100645.56
2023-02-17T07:07:53.738Z,100660.00
2023-02-17T07:10:20.886Z,100654.69
2023-02-17T07:12:47.725Z,100670.50
2023-02-17T07:15:15.288Z,100662.19
2023-02-17T07:17:42.069Z,100656.63
2023-02-17T07:20:09.775Z,100655.94
2023-02-17T07:22:36.823Z,100652.53
2023-02-17T07:25:04.635Z,100644.94
2023-02-17T07:27:32.431Z,100637.75
2023-02-17T07:29:59.277Z,100632.03
2023-02-17T07:32:26.191Z,100624.56
2023-02-17T07:34:53.172Z,100643.72
2023-02-17T07:37:21.958Z,100636.78
2023-02-17T07:39:49.442Z,100642.00
2023-02-17T07:42:16.340Z,100637.13
2023-02-17T07:44:43.490Z,100636.25
2023-02-17T07:47:10.273Z,100634.59
2023-02-17T07:49:37.043Z,100648.31
2023-02-17T07:52:05.375Z,100649.63
2023-02-17T07:54:32.389Z,100664.38
2023-02-17T07:56:59.810Z,100666.25
2023-02-17T07:59:27.051Z,100671.47
2023-02-17T08:01:54.021Z,100672.13
2023-02-17T08:04:21.102Z,100676.22
2023-02-17T08:06:48.003Z,100679.22
2023-02-17T08:09:33.707Z,100684.47
2023-02-17T08:12:19.476Z,100698.38
2023-02-17T08:14:46.308Z,100697.22
2023-02-17T08:17:13.147Z,100690.06
2023-02-17T08:19:48.195Z,100689.91
2023-02-17T08:22:17.524Z,100695.78
2023-02-17T08:24:44.985Z,100698.16
2023-02-17T08:27:11.853Z,100699.66
2023-02-17T08:29:38.799Z,100706.31
2023-02-17T08:32:05.760Z,100708.34
2023-02-17T08:34:35.926Z,100719.00
2023-02-17T08:37:05.625Z,100720.50
2023-02-17T08:39:34.418Z,100727.44
2023-02-17T08:42:02.415Z,100732.66
2023-02-17T08:44:29.500Z,100734.31
2023-02-17T08:46:56.499Z,100746.19
2023-02-17T08:49:28.621Z,100741.22
2023-02-17T08:51:55.933Z,100754.59
2023-02-17T08:54:22.771Z,100760.34
2023-02-17T08:56:49.598Z,100768.44
2023-02-17T08:59:16.455Z,100763.38
2023-02-17T09:01:44.400Z,100762.84
2023-02-17T09:04:14.433Z,100764.19
2023-02-17T09:06:48.800Z,100773.31
2023-02-17T09:09:19.601Z,100775.13
2023-02-17T09:11:46.631Z,100779.94
2023-02-17T09:14:13.873Z,100785.34
2023-02-17T09:16:41.679Z,100787.16
2023-02-17T09:19:08.900Z,100785.25
2023-02-17T09:21:35.748Z,100782.84
2023-02-17T09:24:02.655Z,100773.13
2023-02-17T09:26:29.790Z,100770.72
2023-02-17T09:28:58.151Z,100772.03
2023-02-17T09:31:27.244Z,100761.97
2023-02-17T09:33:54.670Z,100765.38
2023-02-17T09:36:29.150Z,100750.53
2023-02-17T09:38:56.837Z,100754.25
2023-02-17T09:41:32.190Z,100739.25
2023-02-17T09:43:59.812Z,100738.91
2023-02-17T09:46:33.736Z,100720.22
2023-02-17T09:49:08.718Z,100722.00
2023-02-17T09:52:09.427Z,100710.41
2023-02-17T09:55:04.298Z,100709.06
2023-02-17T09:57:41.926Z,100709.63
2023-02-17T10:00:44.289Z,100705.69
2023-02-17T10:03:36.503Z,100712.81
2023-02-17T10:06:16.739Z,100704.97
2023-02-17T10:09:13.848Z,100702.59
2023-02-17T10:11:52.911Z,100705.81
2023-02-17T10:14:29.628Z,100697.06
2023-02-17T10:17:21.613Z,100709.66
2023-02-17T10:19:56.524Z,100731.72
2023-02-17T10:22:25.009Z,100732.28
2023-02-17T10:24:52.429Z,100722.41
2023-02-17T10:27:38.270Z,100714.56
2023-02-17T10:30:05.745Z,100720.66
2023-02-17T10:32:53.226Z,100717.56
2023-02-17T10:35:53.472Z,100722.66
2023-02-17T10:38:44.730Z,100743.19
2023-02-17T10:41:16.387Z,100745.34
2023-02-17T10:43:45.401Z,100737.75
2023-02-17T10:46:16.113Z,100740.53
2023-02-17T10:48:51.335Z,100746.84
2023-02-17T10:51:26.274Z,100733.16
2023-02-17T10:54:07.894Z,100757.75
2023-02-17T10:56:39.922Z,100756.75
2023-02-17T10:59:24.088Z,100758.16
2023-02-17T11:01:51.550Z,100768.94
2023-02-17T11:04:18.371Z,100746.09
2023-02-17T11:06:50.768Z,100758.97
2023-02-17T11:09:23.469Z,100766.38
2023-02-17T11:12:17.409Z,100770.06
2023-02-17T11:14:47.837Z,100764.91
2023-02-17T11:17:39.422Z,100768.75
2023-02-17T11:20:14.093Z,100762.50
2023-02-17T11:23:01.420Z,100765.25
2023-02-17T11:25:35.576Z,100771.00
2023-02-17T11:28:07.533Z,100772.44
2023-02-17T11:30:38.272Z,100754.38
2023-02-17T11:33:22.737Z,100749.56
2023-02-17T11:35:55.064Z,100765.63
2023-02-17T11:38:28.969Z,100757.25
2023-02-17T11:41:02.949Z,100773.69
2023-02-17T11:43:33.172Z,100782.13
2023-02-17T11:46:23.469Z,100796.34
2023-02-17T11:49:37.081Z,100796.28
2023-02-17T11:52:28.423Z,100799.56
2023-02-17T11:55:11.639Z,100815.06
2023-02-17T11:57:53.568Z,100829.94
2023-02-17T12:00:31.440Z,100828.13
2023-02-17T12:03:16.743Z,100837.31
2023-02-17T12:06:09.322Z,100837.22
2023-02-17T12:08:49.054Z,100844.09
2023-02-17T12:11:30.892Z,100838.00
2023-02-17T12:14:14.848Z,100836.97
2023-02-17T12:16:44.468Z,100834.63
2023-02-17T12:19:42.273Z,100838.19
2023-02-17T12:22:55.347Z,100844.22
2023-02-17T12:25:48.274Z,100833.03
2023-02-17T12:28:55.096Z,100844.47
2023-02-17T12:31:48.102Z,100848.41
2023-02-17T12:34:30.368Z,100851.88
2023-02-17T12:36:59.878Z,100853.78
2023-02-17T12:39:42.282Z,100854.41
2023-02-17T12:42:21.027Z,100858.16
2023-02-17T12:45:08.188Z,100869.22
2023-02-17T12:47:59.538Z,100878.28
2023-02-17T12:50:34.265Z,100879.59
2023-02-17T12:53:11.419Z,100882.63
2023-02-17T12:55:49.039Z,100884.72
2023-02-17T12:58:25.802Z,100876.03
2023-02-17T13:01:11.134Z,100872.66
2023-02-17T13:03:38.207Z,100888.94
2023-02-17T13:06:32.421Z,100873.75
2023-02-17T13:09:17.327Z,100876.94
2023-02-17T13:11:45.775Z,100884.56
2023-02-17T13:14:27.811Z,100888.81
2023-02-17T13:16:55.497Z,100897.59
2023-02-17T13:19:34.807Z,100891.50
2023-02-17T13:22:03.460Z,100892.34
2023-02-17T13:24:52.546Z,100900.66
2023-02-17T13:27:28.506Z,100890.19
2023-02-17T13:30:22.581Z,100899.72
2023-02-17T13:33:29.539Z,100886.56
2023-02-17T13:35:56.503Z,100901.31
2023-02-17T13:38:32.420Z,100880.66
2023-02-17T13:41:04.807Z,100888.56
2023-02-17T13:43:41.506Z,100883.97
2023-02-17T13:46:20.287Z,100883.50
2023-02-17T13:48:59.031Z,100890.91
2023-02-17T13:51:29.498Z,100890.72
2023-02-17T13:53:56.534Z,100896.38
2023-02-17T13:56:28.046Z,100902.28
2023-02-17T13:59:07.290Z,100912.13
2023-02-17T14:01:38.753Z,100914.84
2023-02-17T14:04:26.844Z,100922.50
2023-02-17T14:06:57.360Z,100925.75
2023-02-17T14:09:34.467Z,100927.00
2023-02-17T14:12:21.108Z,100940.94
2023-02-17T14:14:48.636Z,100941.88
2023-02-17T14:17:32.718Z,100932.94
2023-02-17T14:20:01.362Z,100935.75
2023-02-17T14:22:33.852Z,100936.03
2023-02-17T14:25:28.569Z,100949.28
2023-02-17T14:27:56.437Z,100948.63
2023-02-17T14:30:29.763Z,100953.97
2023-02-17T14:33:17.978Z,100971.38
2023-02-17T14:36:06.567Z,100974.56
2023-02-17T14:38:41.716Z,100972.41
2023-02-17T14:41:10.265Z,100982.63
2023-02-17T14:43:37.657Z,100995.44
2023-02-17T14:46:04.889Z,101000.69
2023-02-17T14:48:31.987Z,101007.16
2023-02-17T14:50:59.692Z,101015.06
2023-02-17T14:53:33.386Z,101017.06
2023-02-17T14:56:26.100Z,101017.88
2023-02-17T14:58:53.969Z,101024.56
2023-02-17T15:01:24.157Z,101032.81
2023-02-17T15:03:52.641Z,101036.94
2023-02-17T15:06:28.813Z,101031.22
2023-02-17T15:08:57.049Z,101039.13
2023-02-17T15:11:34.566Z,101031.97
2023-02-17T15:14:03.025Z,101039.75
2023-02-17T15:16:30.574Z,101034.28
2023-02-17T15:18:57.823Z,101032.88
2023-02-17T15:21:34.127Z,101040.97
2023-02-17T15:24:03.058Z,101028.72
2023-02-17T15:26:30.983Z,101030.31
2023-02-17T15:28:58.682Z,101036.13
2023-02-17T15:31:30.152Z,101041.94
2023-02-17T15:34:00.084Z,101043.03
2023-02-17T15:36:28.795Z,101054.56
2023-02-17T15:38:55.946Z,101050.03
2023-02-17T15:41:26.418Z,101053.44
2023-02-17T15:43:56.397Z,101043.94
2023-02-17T15:46:31.437Z,101049.59
2023-02-17T15:48:58.169Z,101038.22
2023-02-17T15:51:25.585Z,101047.94
2023-02-17T15:53:52.423Z,101041.34
2023-02-17T15:56:23.504Z,101048.69
2023-02-17T15:58:51.064Z,101053.78
2023-02-17T16:01:38.499Z,101038.03
2023-02-17T16:04:06.851Z,101052.63
2023-02-17T16:06:33.772Z,101054.34
2023-02-17T16:09:00.658Z,101045.88
2023-02-17T16:11:30.023Z,101049.31
2023-02-17T16:13:57.105Z,101060.03
2023-02-17T16:16:32.937Z,101069.84
2023-02-17T16:19:01.046Z,101074.13
2023-02-17T16:21:28.488Z,101069.53
2023-02-17T16:23:59.844Z,101087.41
2023-02-17T16:26:34.670Z,101085.25
2023-02-17T16:29:06.627Z,101101.03
2023-02-17T16:31:35.935Z,101105.28
2023-02-17T16:34:03.185Z,101098.69
2023-02-17T16:36:34.582Z,101105.28
2023-02-17T16:39:11.924Z,101111.78
2023-02-17T16:41:39.345Z,101112.28
2023-02-17T16:44:07.881Z,101114.50
2023-02-17T16:46:37.367Z,101122.66
2023-02-17T16:49:28.463Z,101118.09
2023-02-17T16:51:55.673Z,101117.94
2023-02-17T16:54:22.468Z,101120.47
2023-02-17T16:56:51.621Z,101124.06
2023-02-17T16:59:24.514Z,101120.00
2023-02-17T17:01:53.491Z,101129.88
2023-02-17T17:04:21.714Z,101115.94
2023-02-17T17:06:51.719Z,101130.56
2023-02-17T17:09:23.939Z,101129.56
2023-02-17T17:11:51.211Z,101126.53
2023-02-17T17:14:19.447Z,101122.09
2023-02-17T17:16:57.255Z,101127.03
2023-02-17T17:19:24.714Z,101137.41
2023-02-17T17:21:52.060Z,101133.84
2023-02-17T17:24:19.018Z,101119.38
2023-02-17T17:26:50.490Z,101126.53
2023-02-17T17:29:19.743Z,101136.34
2023-02-17T17:31:48.683Z,101124.81
2023-02-17T17:34:15.542Z,101132.63
2023-02-17T17:36:45.671Z,101128.03
2023-02-17T17:39:22.853Z,101125.31
2023-02-17T17:41:51.144Z,101126.00
2023-02-17T17:44:19.048Z,101130.56
2023-02-17T17:46:45.874Z,101138.38
2023-02-17T17:49:15.578Z,101142.31
2023-02-17T17:51:43.102Z,101149.25
2023-02-17T17:54:10.132Z,101144.81
2023-02-17T17:56:43.125Z,101143.97
2023-02-17T17:59:12.275Z,101141.25
2023-02-17T18:01:39.358Z,101139.38
2023-02-17T18:04:08.953Z,101139.91
2023-02-17T18:06:49.413Z,101145.53
2023-02-17T18:09:31.083Z,101144.88
2023-02-17T18:12:04.300Z,101145.34
2023-02-17T18:14:32.140Z,101144.16
2023-02-17T18:16:59.561Z,101149.59
2023-02-17T18:19:26.952Z,101148.09
2023-02-17T18:21:53.744Z,101158.75
2023-02-17T18:24:20.806Z,101153.03
2023-02-17T18:26:47.748Z,101155.22
2023-02-17T18:29:14.607Z,101154.38
2023-02-17T18:31:41.867Z,101149.28
2023-02-17T18:34:08.751Z,101144.19
2023-02-17T18:36:35.567Z,101147.25
2023-02-17T18:39:02.398Z,101143.88
2023-02-17T18:41:31.697Z,101140.97
2023-02-17T18:44:01.751Z,101149.63
2023-02-17T18:46:29.077Z,101143.34
2023-02-17T18:48:56.930Z,101141.16
2023-02-17T18:51:27.740Z,101142.66
2023-02-17T18:53:56.668Z,101140.97
2023-02-17T18:56:27.394Z,101142.31
2023-02-17T18:58:57.934Z,101150.31
2023-02-17T19:01:33.831Z,101143.19
2023-02-17T19:04:00.914Z,101134.34
2023-02-17T19:06:32.360Z,101135.03
2023-02-17T19:09:01.132Z,101143.50
2023-02-17T19:11:28.233Z,101151.16
2023-02-17T19:13:55.127Z,101147.25
2023-02-17T19:16:25.901Z,101140.41
2023-02-17T19:18:53.626Z,101143.50
2023-02-17T19:21:21.830Z,101145.03
2023-02-17T19:23:51.055Z,101139.44
2023-02-17T19:26:18.690Z,101131.97
2023-02-17T19:28:46.559Z,101126.38
2023-02-17T19:31:17.560Z,101137.75
2023-02-17T19:33:46.548Z,101140.28
2023-02-17T19:36:21.808Z,101140.13
2023-02-17T19:38:51.112Z,101136.88
2023-02-17T19:41:19.540Z,101129.91
2023-02-17T19:43:47.278Z,101130.97
2023-02-17T19:46:26.943Z,101118.53
2023-02-17T19:48:54.244Z,101122.28
2023-02-17T19:51:21.364Z,101116.84
2023-02-17T19:53:48.929Z,101130.28
2023-02-17T19:56:19.591Z,101113.09
2023-02-17T19:58:48.316Z,101109.56
2023-02-17T20:01:28.722Z,101108.38
2023-02-17T20:03:57.059Z,101116.03
2023-02-17T20:06:31.684Z,101114.66
2023-02-17T20:09:02.913Z,101112.28
2023-02-17T20:11:32.037Z,101107.19
2023-02-17T20:14:01.688Z,101107.50
2023-02-17T20:16:30.358Z,101103.44
2023-02-17T20:18:57.350Z,101097.16
2023-02-17T20:21:28.575Z,101095.63
2023-02-17T20:23:56.023Z,101091.88
2023-02-17T20:26:29.723Z,101094.25
2023-02-17T20:28:57.685Z,101088.81
2023-02-17T20:31:26.285Z,101083.06
2023-02-17T20:33:53.267Z,101088.66
2023-02-17T20:36:22.368Z,101079.63
2023-02-17T20:38:50.524Z,101070.66
2023-02-17T20:41:20.442Z,101065.56
2023-02-17T20:43:48.303Z,101062.34
2023-02-17T20:46:22.690Z,101061.47
2023-02-17T20:48:50.199Z,101055.22
2023-02-17T20:51:17.205Z,101057.25
2023-02-17T20:53:43.979Z,101059.63
2023-02-17T20:56:18.287Z,101048.75
2023-02-17T20:58:46.483Z,101034.16
2023-02-17T21:01:13.903Z,101040.44
2023-02-17T21:03:41.105Z,101037.38
2023-02-17T21:06:31.666Z,101036.56
2023-02-17T21:09:06.669Z,101038.56
2023-02-17T21:11:36.436Z,101029.75
2023-02-17T21:14:04.135Z,101020.91
2023-02-17T21:16:32.234Z,101025.34
2023-02-17T21:19:01.373Z,101031.63
2023-02-17T21:21:30.039Z,101045.34
2023-02-17T21:23:58.471Z,101040.97
2023-02-17T21:26:25.582Z,101039.25
2023-02-17T21:28:52.538Z,101031.47
2023-02-17T21:31:19.802Z,101037.22
2023-02-17T21:33:46.758Z,101033.47
2023-02-17T21:36:18.794Z,101032.16
2023-02-17T21:38:47.544Z,101031.13
2023-02-17T21:41:22.815Z,101037.38
2023-02-17T21:44:08.745Z,101035.88
2023-02-17T21:46:37.541Z,101052.31
2023-02-17T21:49:04.887Z,101050.28
2023-02-17T21:51:32.248Z,101045.88
2023-02-17T21:53:59.473Z,101054.88
2023-02-17T21:56:26.731Z,101052.00
2023-02-17T21:58:56.131Z,101051.31
2023-02-17T22:01:26.422Z,101047.41
2023-02-17T22:03:54.146Z,101045.22
2023-02-17T22:06:35.711Z,101049.75
2023-02-17T22:09:03.777Z,101046.72
2023-02-17T22:11:36.904Z,101048.94
2023-02-17T22:14:12.157Z,101039.94
2023-02-17T22:16:39.403Z,101037.25
2023-02-17T22:19:08.760Z,101046.56
2023-02-17T22:21:36.062Z,101040.44
2023-02-17T22:24:03.357Z,101041.63
2023-02-17T22:26:31.118Z,101038.59
2023-02-17T22:28:58.226Z,101050.97
2023-02-17T22:31:28.889Z,101050.13
2023-02-17T22:33:58.415Z,101043.34
2023-02-17T22:36:27.575Z,101036.56
2023-02-17T22:38:55.018Z,101034.34
2023-02-17T22:41:25.272Z,101039.25
2023-02-17T22:43:53.182Z,101033.84
2023-02-17T22:46:23.243Z,101021.63
2023-02-17T22:48:52.183Z,101021.44
2023-02-17T22:51:26.757Z,101020.06
2023-02-17T22:53:53.666Z,101021.63
2023-02-17T22:56:21.821Z,101010.25
2023-02-17T22:58:54.026Z,101013.13
2023-02-17T23:01:21.334Z,101020.25
2023-02-17T23:03:54.007Z,101013.97
2023-02-17T23:06:28.648Z,101005.84
2023-02-17T23:08:56.554Z,101013.31
2023-02-17T23:11:45.689Z,101014.16
2023-02-17T23:14:14.033Z,101014.47
2023-02-17T23:16:41.224Z,101011.94
2023-02-17T23:19:11.163Z,101013.13
2023-02-17T23:21:43.250Z,101018.53
2023-02-17T23:24:10.280Z,101012.63
2023-02-17T23:26:37.282Z,101010.44
2023-02-17T23:29:05.038Z,101014.66
2023-02-17T23:31:33.192Z,100999.53
2023-02-17T23:34:00.205Z,101003.63
2023-02-17T23:36:27.369Z,101005.16
2023-02-17T23:38:56.002Z,101007.19
2023-02-17T23:41:23.072Z,101003.09
2023-02-17T23:43:50.033Z,101006.16
2023-02-17T23:46:17.081Z,101007.00
2023-02-17T23:48:43.986Z,101004.66
2023-02-17T23:51:18.038Z,101003.97
2023-02-17T23:53:45.697Z,100992.09
2023-02-17T23:56:19.734Z,100998.53
2023-02-17T23:58:47.134Z,100992.09
